createdAt,value
2018-08-31T00:01:38.441Z,17.77
2018-08-31T00:04:43.946Z,17.75
2018-08-31T00:07:29.249Z,17.70
2018-08-31T00:12:19.759Z,17.74
2018-08-31T00:14:48.723Z,17.66
2018-08-31T00:17:17.652Z,17.65
2018-08-31T00:19:46.309Z,17.71
2018-08-31T00:22:14.997Z,17.64
2018-08-31T00:24:59.482Z,17.82
2018-08-31T00:27:39.042Z,17.85
2018-08-31T00:30:18.633Z,17.69
2018-08-31T00:38:03.201Z,17.66
2018-08-31T00:41:11.746Z,17.64
2018-08-31T00:45:49.523Z,17.58
2018-08-31T00:48:18.097Z,17.62
2018-08-31T00:50:46.677Z,17.67
2018-08-31T00:53:15.361Z,17.60
2018-08-31T00:55:43.962Z,17.55
2018-08-31T00:58:12.570Z,17.56
2018-08-31T01:00:41.412Z,17.60
2018-08-31T01:03:10.117Z,17.64
2018-08-31T01:05:38.887Z,17.63
2018-08-31T01:08:07.896Z,17.79
2018-08-31T01:10:36.920Z,17.84
2018-08-31T01:13:05.557Z,17.75
2018-08-31T01:15:34.141Z,17.70
2018-08-31T01:18:02.804Z,17.67
2018-08-31T01:20:31.432Z,17.67
2018-08-31T01:23:00.046Z,17.48
2018-08-31T01:25:28.728Z,17.49
2018-08-31T01:27:57.539Z,17.36
2018-08-31T01:30:26.203Z,17.28
2018-08-31T01:32:54.966Z,17.29
2018-08-31T01:35:23.594Z,17.30
2018-08-31T01:37:52.183Z,17.32
2018-08-31T01:40:20.834Z,17.25
2018-08-31T01:42:49.424Z,17.25
2018-08-31T01:45:18.035Z,17.23
2018-08-31T01:47:46.601Z,17.22
2018-08-31T01:50:15.234Z,17.18
2018-08-31T01:52:43.895Z,17.27
2018-08-31T01:55:12.474Z,17.25
2018-08-31T01:57:41.037Z,17.16
2018-08-31T02:00:09.976Z,17.15
2018-08-31T02:02:38.553Z,17.16
2018-08-31T02:05:07.310Z,17.09
2018-08-31T02:07:35.930Z,17.16
2018-08-31T02:10:05.359Z,17.18
2018-08-31T02:12:34.022Z,17.23
2018-08-31T02:15:02.665Z,17.14
2018-08-31T02:17:31.335Z,17.16
2018-08-31T02:19:59.957Z,17.21
2018-08-31T02:22:28.625Z,17.21
2018-08-31T02:24:57.313Z,17.30
2018-08-31T02:27:26.006Z,17.29
2018-08-31T02:29:54.618Z,17.18
2018-08-31T02:32:23.251Z,17.27
2018-08-31T02:34:51.923Z,17.18
2018-08-31T02:37:20.612Z,17.14
2018-08-31T02:39:49.281Z,17.13
2018-08-31T02:42:18.016Z,17.08
2018-08-31T02:44:52.049Z,17.11
2018-08-31T02:47:20.610Z,16.84
2018-08-31T02:49:49.352Z,16.86
2018-08-31T02:52:17.914Z,16.87
2018-08-31T02:54:46.958Z,17.01
2018-08-31T02:57:15.555Z,16.92
2018-08-31T02:59:44.141Z,16.86
2018-08-31T03:02:12.721Z,17.00
2018-08-31T03:04:41.389Z,16.87
2018-08-31T03:07:10.014Z,16.78
2018-08-31T03:09:38.661Z,16.92
2018-08-31T03:12:07.275Z,16.86
2018-08-31T03:14:35.864Z,16.84
2018-08-31T03:17:04.510Z,16.80
2018-08-31T03:19:33.197Z,16.68
2018-08-31T03:22:01.801Z,16.61
2018-08-31T03:24:31.126Z,16.48
2018-08-31T03:26:59.701Z,16.40
2018-08-31T03:29:28.317Z,16.44
2018-08-31T03:31:56.994Z,16.40
2018-08-31T03:34:25.599Z,16.48
2018-08-31T03:36:54.256Z,16.67
2018-08-31T03:39:23.389Z,16.66
2018-08-31T03:41:52.950Z,16.59
2018-08-31T03:44:21.637Z,16.53
2018-08-31T03:46:50.337Z,16.56
2018-08-31T03:49:19.025Z,16.50
2018-08-31T03:51:47.690Z,16.60
2018-08-31T03:54:16.369Z,16.54
2018-08-31T03:56:45.010Z,16.44
2018-08-31T03:59:13.621Z,16.46
2018-08-31T04:01:42.320Z,16.55
2018-08-31T04:04:10.972Z,16.52
2018-08-31T04:06:39.565Z,16.51
2018-08-31T04:09:08.855Z,16.55
2018-08-31T04:11:37.433Z,16.62
2018-08-31T04:14:06.286Z,16.53
2018-08-31T04:16:34.878Z,16.52
2018-08-31T04:19:07.585Z,16.57
2018-08-31T04:21:36.221Z,16.56
2018-08-31T04:24:04.809Z,16.48
2018-08-31T04:26:33.470Z,16.65
2018-08-31T04:29:02.060Z,16.61
2018-08-31T04:31:30.710Z,16.60
2018-08-31T04:33:59.471Z,16.63
2018-08-31T04:36:28.079Z,16.68
2018-08-31T04:38:56.668Z,16.74
2018-08-31T04:41:25.319Z,16.71
2018-08-31T04:43:54.071Z,16.77
2018-08-31T04:46:23.277Z,16.92
2018-08-31T04:48:51.906Z,16.97
2018-08-31T04:51:20.510Z,16.89
2018-08-31T04:53:49.067Z,17.00
2018-08-31T04:56:17.647Z,16.99
2018-08-31T04:58:46.269Z,16.90
2018-08-31T05:01:16.096Z,16.93
2018-08-31T05:03:44.727Z,16.97
2018-08-31T05:06:13.329Z,16.89
2018-08-31T05:08:41.921Z,17.11
2018-08-31T05:11:10.636Z,17.14
2018-08-31T05:13:39.390Z,17.17
2018-08-31T05:16:08.917Z,17.20
2018-08-31T05:18:37.523Z,17.18
2018-08-31T05:21:06.182Z,17.23
2018-08-31T05:23:34.806Z,17.39
2018-08-31T05:26:03.498Z,17.48
2018-08-31T05:28:32.282Z,17.46
2018-08-31T05:31:03.432Z,17.48
2018-08-31T05:33:32.264Z,17.49
2018-08-31T05:36:00.901Z,17.73
2018-08-31T05:38:31.900Z,17.82
2018-08-31T05:41:00.573Z,17.75
2018-08-31T05:43:29.154Z,17.94
2018-08-31T05:45:57.833Z,17.98
2018-08-31T05:48:26.445Z,17.96
2018-08-31T05:50:55.085Z,17.89
2018-08-31T05:53:23.748Z,18.03
2018-08-31T05:55:52.397Z,18.13
2018-08-31T05:58:21.076Z,18.20
2018-08-31T06:00:49.670Z,18.29
2018-08-31T06:03:18.272Z,18.38
2018-08-31T06:05:47.049Z,18.41
2018-08-31T06:08:15.701Z,18.39
2018-08-31T06:10:44.338Z,18.46
2018-08-31T06:13:13.238Z,18.44
2018-08-31T06:15:41.897Z,18.53
2018-08-31T06:18:10.746Z,18.54
2018-08-31T06:20:39.455Z,18.58
2018-08-31T06:23:08.156Z,18.66
2018-08-31T06:25:36.852Z,18.69
2018-08-31T06:28:05.632Z,18.81
2018-08-31T06:30:34.512Z,18.91
2018-08-31T06:33:03.696Z,18.75
2018-08-31T06:35:32.390Z,18.74
2018-08-31T06:38:01.082Z,18.95
2018-08-31T06:40:29.776Z,19.09
2018-08-31T06:42:58.478Z,19.22
2018-08-31T06:45:27.206Z,19.26
2018-08-31T06:47:55.878Z,19.29
2018-08-31T06:50:24.489Z,19.29
2018-08-31T06:52:53.143Z,19.18
2018-08-31T06:55:21.858Z,19.24
2018-08-31T06:57:50.617Z,19.42
2018-08-31T07:00:19.318Z,19.42
2018-08-31T07:02:47.949Z,19.52
2018-08-31T07:05:16.605Z,19.59
2018-08-31T07:07:45.373Z,19.67
2018-08-31T07:10:14.118Z,19.75
2018-08-31T07:12:42.865Z,19.73
2018-08-31T07:15:11.694Z,19.70
2018-08-31T07:17:41.031Z,19.58
2018-08-31T07:20:09.723Z,19.67
2018-08-31T07:22:38.464Z,19.84
2018-08-31T07:25:07.232Z,19.74
2018-08-31T07:27:35.988Z,19.82
2018-08-31T07:30:04.898Z,19.68
2018-08-31T07:32:34.480Z,19.62
2018-08-31T07:35:03.148Z,19.73
2018-08-31T07:37:31.788Z,19.85
2018-08-31T07:40:00.441Z,19.99
2018-08-31T07:42:29.066Z,20.07
2018-08-31T07:44:57.651Z,20.24
2018-08-31T07:47:26.242Z,20.16
2018-08-31T07:49:54.882Z,20.17
2018-08-31T07:52:23.531Z,20.30
2018-08-31T07:54:52.285Z,20.42
2018-08-31T07:57:20.906Z,20.67
2018-08-31T07:59:49.576Z,20.73
2018-08-31T08:02:18.267Z,20.58
2018-08-31T08:04:46.945Z,20.61
2018-08-31T08:07:15.590Z,20.95
2018-08-31T08:09:44.317Z,21.21
2018-08-31T08:12:12.996Z,21.37
2018-08-31T08:14:41.667Z,21.56
2018-08-31T08:17:10.261Z,21.52
2018-08-31T08:19:39.011Z,21.74
2018-08-31T08:22:14.459Z,22.16
2018-08-31T08:24:43.181Z,22.53
2018-08-31T08:27:11.822Z,22.57
2018-08-31T08:29:40.449Z,22.66
2018-08-31T08:32:09.101Z,22.79
2018-08-31T08:34:37.697Z,22.72
2018-08-31T08:37:06.371Z,22.76
2018-08-31T08:39:35.029Z,22.77
2018-08-31T08:42:03.703Z,22.87
2018-08-31T08:44:32.391Z,23.08
2018-08-31T08:47:01.094Z,23.09
2018-08-31T08:49:29.911Z,23.21
2018-08-31T08:51:58.711Z,23.46
2018-08-31T08:54:27.374Z,23.75
2018-08-31T08:56:56.226Z,23.97
2018-08-31T08:59:24.939Z,24.09
2018-08-31T09:01:53.556Z,24.23
2018-08-31T09:04:22.272Z,24.30
2018-08-31T09:06:50.913Z,24.51
2018-08-31T09:09:19.571Z,24.67
2018-08-31T09:11:54.483Z,24.78
2018-08-31T09:14:23.167Z,24.74
2018-08-31T09:16:51.811Z,24.69
2018-08-31T09:19:20.776Z,24.79
2018-08-31T09:21:49.834Z,24.64
2018-08-31T09:24:18.733Z,24.31
2018-08-31T09:26:47.725Z,24.32
2018-08-31T09:29:18.510Z,24.36
2018-08-31T09:31:47.369Z,24.39
2018-08-31T09:34:16.371Z,24.30
2018-08-31T09:36:45.235Z,24.59
2018-08-31T09:39:13.907Z,24.84
2018-08-31T09:41:43.281Z,25.23
2018-08-31T09:44:11.973Z,25.52
2018-08-31T09:46:41.336Z,25.46
2018-08-31T09:49:11.179Z,25.47
2018-08-31T09:51:40.011Z,25.56
2018-08-31T09:54:08.902Z,25.69
2018-08-31T09:56:37.727Z,25.47
2018-08-31T09:59:06.728Z,25.34
2018-08-31T10:01:37.899Z,25.34
2018-08-31T10:04:07.342Z,25.18
2018-08-31T10:06:36.300Z,24.99
2018-08-31T10:09:06.883Z,24.59
2018-08-31T10:11:35.696Z,24.71
2018-08-31T10:14:04.806Z,25.01
2018-08-31T10:16:38.906Z,25.39
2018-08-31T10:19:07.660Z,25.89
2018-08-31T10:21:36.363Z,26.25
2018-08-31T10:24:05.057Z,26.49
2018-08-31T10:26:33.735Z,26.48
2018-08-31T10:29:02.412Z,26.73
2018-08-31T10:31:36.079Z,26.86
2018-08-31T10:34:04.830Z,27.26
2018-08-31T10:36:33.533Z,27.14
2018-08-31T10:39:02.211Z,27.05
2018-08-31T10:41:30.931Z,27.09
2018-08-31T10:43:59.642Z,27.25
2018-08-31T10:46:28.363Z,27.13
2018-08-31T10:48:57.037Z,27.06
2018-08-31T10:51:25.779Z,26.76
2018-08-31T10:53:54.568Z,26.71
2018-08-31T10:56:23.334Z,26.66
2018-08-31T10:58:52.142Z,26.63
2018-08-31T11:01:20.850Z,26.49
2018-08-31T11:03:49.579Z,26.49
2018-08-31T11:06:18.279Z,26.58
2018-08-31T11:08:47.111Z,26.71
2018-08-31T11:11:15.815Z,26.86
2018-08-31T11:13:44.534Z,26.99
2018-08-31T11:16:13.269Z,26.89
2018-08-31T11:18:42.039Z,26.79
2018-08-31T11:21:13.261Z,26.54
2018-08-31T11:23:42.475Z,26.42
2018-08-31T11:26:11.220Z,26.43
2018-08-31T11:28:39.950Z,26.08
2018-08-31T11:31:08.683Z,25.97
2018-08-31T11:33:37.867Z,26.11
2018-08-31T11:36:06.721Z,26.16
2018-08-31T11:38:35.467Z,26.30
2018-08-31T11:41:04.165Z,26.44
2018-08-31T11:43:32.923Z,26.41
2018-08-31T11:46:01.665Z,26.48
2018-08-31T11:48:30.471Z,26.48
2018-08-31T11:50:59.306Z,26.51
2018-08-31T11:53:28.087Z,26.76
2018-08-31T11:55:56.830Z,26.78
2018-08-31T11:58:25.590Z,26.88
2018-08-31T12:00:54.746Z,27.15
2018-08-31T12:03:23.394Z,27.47
2018-08-31T12:05:52.059Z,27.54
2018-08-31T12:08:20.693Z,27.46
2018-08-31T12:10:49.331Z,27.52
2018-08-31T12:13:17.978Z,27.69
2018-08-31T12:15:46.673Z,27.49
2018-08-31T12:18:15.345Z,27.62
2018-08-31T12:20:44.020Z,27.69
2018-08-31T12:23:12.679Z,27.69
2018-08-31T12:25:41.327Z,27.81
2018-08-31T12:28:09.988Z,28.06
2018-08-31T12:30:38.666Z,28.21
2018-08-31T12:33:07.582Z,28.03
2018-08-31T12:35:36.238Z,27.78
2018-08-31T12:38:04.930Z,28.09
2018-08-31T12:40:33.616Z,28.30
2018-08-31T12:43:02.353Z,28.27
2018-08-31T12:45:31.066Z,28.63
2018-08-31T12:47:59.717Z,28.63
2018-08-31T12:50:28.421Z,28.23
2018-08-31T12:52:58.128Z,28.09
2018-08-31T12:55:26.835Z,27.96
2018-08-31T12:57:55.490Z,27.76
2018-08-31T13:00:24.221Z,27.39
2018-08-31T13:02:53.216Z,27.14
2018-08-31T13:05:21.918Z,26.98
2018-08-31T13:07:50.547Z,26.97
2018-08-31T13:10:19.331Z,27.05
2018-08-31T13:12:48.081Z,26.89
2018-08-31T13:15:16.794Z,26.98
2018-08-31T13:17:45.534Z,26.94
2018-08-31T13:20:14.185Z,27.01
2018-08-31T13:22:42.943Z,26.76
2018-08-31T13:25:11.653Z,26.55
2018-08-31T13:27:40.313Z,26.53
2018-08-31T13:30:09.097Z,26.72
2018-08-31T13:32:37.785Z,26.81
2018-08-31T13:35:07.171Z,26.99
2018-08-31T13:37:35.859Z,27.12
2018-08-31T13:40:04.558Z,27.24
2018-08-31T13:42:33.245Z,27.38
2018-08-31T13:45:01.913Z,27.16
2018-08-31T13:47:31.037Z,27.05
2018-08-31T13:49:59.854Z,27.03
2018-08-31T13:52:28.593Z,26.86
2018-08-31T13:54:57.203Z,26.91
2018-08-31T13:57:25.961Z,27.00
2018-08-31T13:59:54.583Z,27.06
2018-08-31T14:02:23.263Z,27.11
2018-08-31T14:04:52.090Z,27.11
2018-08-31T14:07:20.710Z,27.30
2018-08-31T14:09:49.498Z,27.52
2018-08-31T14:12:18.199Z,28.03
2018-08-31T14:14:46.903Z,29.11
2018-08-31T14:17:15.967Z,30.53
2018-08-31T14:19:45.918Z,31.70
2018-08-31T14:22:14.785Z,31.98
2018-08-31T14:24:43.466Z,31.38
2018-08-31T14:27:12.160Z,30.56
2018-08-31T14:29:40.979Z,29.94
2018-08-31T14:32:09.611Z,29.68
2018-08-31T14:34:38.311Z,29.35
2018-08-31T14:37:07.136Z,29.10
2018-08-31T14:39:35.890Z,28.92
2018-08-31T14:42:04.558Z,28.78
2018-08-31T14:44:33.239Z,28.38
2018-08-31T14:47:01.982Z,27.79
2018-08-31T14:49:31.013Z,27.37
2018-08-31T14:51:59.678Z,26.91
2018-08-31T14:54:28.310Z,26.57
2018-08-31T14:56:56.990Z,26.26
2018-08-31T14:59:25.711Z,26.02
2018-08-31T15:01:54.489Z,25.89
2018-08-31T15:04:23.531Z,25.76
2018-08-31T15:06:52.241Z,25.60
2018-08-31T15:09:20.922Z,25.58
2018-08-31T15:11:49.645Z,25.52
2018-08-31T15:14:18.387Z,25.50
2018-08-31T15:16:47.110Z,25.60
2018-08-31T15:19:15.894Z,25.55
2018-08-31T15:21:44.566Z,25.47
2018-08-31T15:24:13.326Z,25.40
2018-08-31T15:26:42.010Z,25.50
2018-08-31T15:29:10.754Z,25.46
2018-08-31T15:31:39.408Z,25.50
2018-08-31T15:34:08.102Z,25.51
2018-08-31T15:36:36.809Z,25.53
2018-08-31T15:39:07.815Z,25.50
2018-08-31T15:41:36.569Z,25.48
2018-08-31T15:44:05.319Z,25.43
2018-08-31T15:46:33.980Z,25.29
2018-08-31T15:49:02.666Z,25.36
2018-08-31T15:51:31.401Z,25.92
2018-08-31T15:54:00.082Z,26.88
2018-08-31T15:56:28.724Z,27.21
2018-08-31T15:58:57.381Z,27.15
2018-08-31T16:01:26.009Z,27.21
2018-08-31T16:03:54.702Z,27.21
2018-08-31T16:06:23.378Z,27.24
2018-08-31T16:08:52.046Z,28.32
2018-08-31T16:11:20.726Z,29.81
2018-08-31T16:13:49.476Z,31.49
2018-08-31T16:16:18.450Z,32.70
2018-08-31T16:18:47.224Z,33.37
2018-08-31T16:21:15.898Z,33.67
2018-08-31T16:23:44.619Z,33.94
2018-08-31T16:26:13.253Z,34.27
2018-08-31T16:28:41.884Z,34.25
2018-08-31T16:31:10.719Z,33.55
2018-08-31T16:33:39.309Z,32.46
2018-08-31T16:36:08.529Z,31.17
2018-08-31T16:38:37.177Z,30.14
2018-08-31T16:41:05.798Z,29.16
2018-08-31T16:43:34.448Z,28.40
2018-08-31T16:46:03.205Z,27.82
2018-08-31T16:48:31.834Z,27.27
2018-08-31T16:51:00.477Z,26.82
2018-08-31T16:53:29.225Z,26.36
2018-08-31T16:55:57.884Z,25.90
2018-08-31T16:58:26.670Z,25.48
2018-08-31T17:00:55.246Z,25.13
2018-08-31T17:03:23.889Z,24.88
2018-08-31T17:05:52.502Z,24.65
2018-08-31T17:08:21.122Z,24.38
2018-08-31T17:10:55.321Z,24.12
2018-08-31T17:13:23.978Z,23.85
2018-08-31T17:15:52.590Z,23.63
2018-08-31T17:18:21.256Z,23.43
2018-08-31T17:20:49.852Z,23.25
2018-08-31T17:23:18.495Z,23.10
2018-08-31T17:25:47.128Z,22.89
2018-08-31T17:28:20.998Z,22.69
2018-08-31T17:30:53.767Z,22.48
2018-08-31T17:33:27.553Z,22.32
2018-08-31T17:36:01.447Z,22.17
2018-08-31T17:38:30.122Z,22.01
2018-08-31T17:40:58.756Z,21.85
2018-08-31T17:43:27.398Z,21.78
2018-08-31T17:45:57.004Z,21.69
2018-08-31T17:48:26.038Z,21.69
2018-08-31T17:50:55.031Z,21.72
2018-08-31T17:53:23.625Z,21.55
2018-08-31T17:55:52.345Z,21.41
2018-08-31T17:58:20.986Z,21.39
2018-08-31T18:00:49.694Z,21.41
2018-08-31T18:03:18.286Z,21.29
2018-08-31T18:05:46.963Z,21.19
2018-08-31T18:08:15.570Z,21.10
2018-08-31T18:10:44.278Z,21.00
2018-08-31T18:13:12.901Z,20.91
2018-08-31T18:15:41.578Z,20.83
2018-08-31T18:18:10.241Z,20.76
2018-08-31T18:20:38.966Z,20.69
2018-08-31T18:23:07.606Z,20.60
2018-08-31T18:25:36.282Z,20.53
2018-08-31T18:28:04.919Z,20.52
2018-08-31T18:30:33.538Z,20.52
2018-08-31T18:33:02.226Z,20.58
2018-08-31T18:35:30.875Z,20.58
2018-08-31T18:37:59.509Z,20.63
2018-08-31T18:40:28.206Z,20.64
2018-08-31T18:42:57.383Z,20.54
2018-08-31T18:45:26.441Z,20.46
2018-08-31T18:47:55.086Z,20.35
2018-08-31T18:50:23.747Z,20.33
2018-08-31T18:52:52.369Z,20.40
2018-08-31T18:55:21.010Z,20.33
2018-08-31T18:57:49.714Z,20.26
2018-08-31T19:00:18.394Z,20.20
2018-08-31T19:02:47.387Z,20.24
2018-08-31T19:05:16.109Z,20.23
2018-08-31T19:07:44.797Z,20.23
2018-08-31T19:10:13.450Z,20.21
2018-08-31T19:12:42.118Z,20.25
2018-08-31T19:15:10.764Z,20.40
2018-08-31T19:17:39.506Z,20.41
2018-08-31T19:20:08.204Z,20.67
2018-08-31T19:22:36.991Z,20.83
2018-08-31T19:25:05.718Z,20.83
2018-08-31T19:27:34.319Z,20.88
2018-08-31T19:30:02.951Z,21.03
2018-08-31T19:32:31.611Z,21.00
2018-08-31T19:35:00.317Z,20.93
2018-08-31T19:37:28.994Z,20.81
2018-08-31T19:39:57.707Z,20.79
2018-08-31T19:42:26.461Z,20.76
2018-08-31T19:44:55.233Z,20.62
2018-08-31T19:47:24.007Z,20.52
2018-08-31T19:49:53.079Z,20.40
2018-08-31T19:52:21.763Z,20.33
2018-08-31T19:54:50.390Z,20.30
2018-08-31T19:57:19.149Z,20.26
2018-08-31T19:59:47.813Z,20.27
2018-08-31T20:02:16.510Z,20.35
2018-08-31T20:04:45.202Z,20.32
2018-08-31T20:07:14.227Z,20.43
2018-08-31T20:09:43.020Z,20.32
2018-08-31T20:12:11.755Z,20.25
2018-08-31T20:14:40.419Z,20.19
2018-08-31T20:17:09.084Z,20.24
2018-08-31T20:19:37.779Z,20.38
2018-08-31T20:22:09.486Z,20.41
2018-08-31T20:24:38.154Z,20.32
2018-08-31T20:27:06.867Z,20.24
2018-08-31T20:29:35.503Z,20.24
2018-08-31T20:32:04.294Z,20.20
2018-08-31T20:34:32.961Z,20.23
2018-08-31T20:37:01.580Z,20.12
2018-08-31T20:39:30.236Z,20.06
2018-08-31T20:41:58.861Z,20.08
2018-08-31T20:44:27.646Z,20.00
2018-08-31T20:46:56.284Z,19.93
2018-08-31T20:49:24.931Z,19.92
2018-08-31T20:51:53.578Z,19.85
2018-08-31T20:54:22.359Z,19.82
2018-08-31T20:56:51.042Z,19.78
2018-08-31T20:59:19.664Z,19.77
2018-08-31T21:01:48.323Z,19.72
2018-08-31T21:04:17.007Z,19.68
2018-08-31T21:06:45.750Z,19.67
2018-08-31T21:09:14.421Z,19.66
2018-08-31T21:11:43.086Z,19.63
2018-08-31T21:14:11.737Z,19.65
2018-08-31T21:16:40.343Z,19.63
2018-08-31T21:19:09.005Z,19.62
2018-08-31T21:21:37.948Z,19.69
2018-08-31T21:24:06.622Z,19.83
2018-08-31T21:26:35.274Z,19.88
2018-08-31T21:29:03.950Z,19.85
2018-08-31T21:31:32.639Z,19.80
2018-08-31T21:34:01.326Z,19.70
2018-08-31T21:36:30.013Z,19.61
2018-08-31T21:38:58.711Z,19.55
2018-08-31T21:41:27.395Z,19.60
2018-08-31T21:43:56.120Z,19.59
2018-08-31T21:46:24.763Z,19.61
2018-08-31T21:48:53.465Z,19.55
2018-08-31T21:51:22.150Z,19.47
2018-08-31T21:53:50.832Z,19.52
2018-08-31T21:56:19.487Z,19.43
2018-08-31T21:58:48.200Z,19.33
2018-08-31T22:01:22.214Z,19.23
2018-08-31T22:03:50.966Z,19.15
2018-08-31T22:06:19.607Z,19.14
2018-08-31T22:08:48.263Z,19.09
2018-08-31T22:11:16.936Z,19.00
2018-08-31T22:13:45.638Z,18.95
2018-08-31T22:16:14.312Z,18.95
2018-08-31T22:18:43.001Z,18.97
2018-08-31T22:21:11.727Z,19.09
2018-08-31T22:23:40.354Z,19.29
2018-08-31T22:26:09.083Z,19.33
2018-08-31T22:28:37.739Z,19.25
2018-08-31T22:31:06.456Z,19.25
2018-08-31T22:33:35.123Z,19.19
2018-08-31T22:36:03.919Z,19.11
2018-08-31T22:38:32.646Z,19.09
2018-08-31T22:41:01.290Z,19.12
2018-08-31T22:43:35.074Z,19.12
2018-08-31T22:46:03.756Z,19.07
2018-08-31T22:48:32.480Z,19.17
2018-08-31T22:51:01.105Z,19.25
2018-08-31T22:53:29.837Z,19.24
2018-08-31T22:55:58.499Z,19.22
2018-08-31T22:58:27.191Z,19.21
2018-08-31T23:00:55.921Z,19.30
2018-08-31T23:03:24.662Z,19.22
2018-08-31T23:05:54.626Z,19.10
2018-08-31T23:08:23.286Z,18.97
2018-08-31T23:10:51.987Z,18.87
2018-08-31T23:13:20.701Z,18.78
2018-08-31T23:15:49.266Z,18.70
2018-08-31T23:18:17.985Z,18.62
2018-08-31T23:20:46.742Z,18.66
2018-08-31T23:23:20.357Z,18.65
2018-08-31T23:25:49.080Z,18.75
2018-08-31T23:28:18.378Z,18.76
2018-08-31T23:30:47.165Z,18.71
2018-08-31T23:33:15.991Z,18.68
2018-08-31T23:35:44.843Z,18.62
2018-08-31T23:38:14.011Z,18.62
2018-08-31T23:40:42.739Z,18.61
2018-08-31T23:43:11.395Z,18.56
2018-08-31T23:45:40.012Z,18.49
2018-08-31T23:48:08.686Z,18.45
2018-08-31T23:50:37.266Z,18.43
2018-08-31T23:53:05.969Z,18.57
2018-08-31T23:55:34.648Z,18.56
2018-08-31T23:58:03.395Z,18.65
